createdAt,value
2022-09-14T00:00:13.464Z,19.20
2022-09-14T00:01:47.007Z,19.20
2022-09-14T00:03:19.481Z,19.20
2022-09-14T00:04:51.285Z,19.20
2022-09-14T00:06:23.670Z,19.20
2022-09-14T00:07:55.310Z,19.10
2022-09-14T00:09:26.997Z,19.10
2022-09-14T00:10:58.669Z,19.10
2022-09-14T00:12:30.317Z,19.10
2022-09-14T00:14:03.384Z,19.10
2022-09-14T00:15:40.197Z,19.10
2022-09-14T00:17:11.841Z,19.10
2022-09-14T00:18:43.908Z,19.10
2022-09-14T00:20:15.573Z,19.00
2022-09-14T00:21:51.549Z,19.00
2022-09-14T00:23:23.204Z,19.00
2022-09-14T00:24:54.805Z,19.00
2022-09-14T00:26:26.578Z,19.00
2022-09-14T00:27:58.472Z,19.00
2022-09-14T00:29:31.288Z,19.00
2022-09-14T00:31:04.385Z,19.00
2022-09-14T00:32:36.285Z,19.00
2022-09-14T00:34:11.092Z,19.00
2022-09-14T00:35:42.756Z,19.00
2022-09-14T00:37:14.486Z,19.00
2022-09-14T00:38:47.421Z,18.90
2022-09-14T00:40:19.441Z,19.00
2022-09-14T00:41:51.929Z,18.90
2022-09-14T00:43:23.561Z,18.90
2022-09-14T00:45:00.122Z,18.90
2022-09-14T00:46:43.727Z,19.00
2022-09-14T00:48:15.665Z,18.90
2022-09-14T00:49:47.305Z,18.90
2022-09-14T00:51:21.108Z,18.90
2022-09-14T00:52:54.022Z,18.90
2022-09-14T00:54:26.427Z,18.90
2022-09-14T00:55:58.145Z,18.90
2022-09-14T00:57:36.354Z,18.90
2022-09-14T00:59:19.178Z,18.80
2022-09-14T01:00:50.866Z,18.80
2022-09-14T01:02:25.494Z,18.80
2022-09-14T01:03:57.225Z,18.80
2022-09-14T01:05:45.097Z,18.80
2022-09-14T01:07:50.702Z,18.80
2022-09-14T01:10:05.429Z,18.80
2022-09-14T01:11:58.829Z,18.70
2022-09-14T01:13:55.213Z,18.70
2022-09-14T01:15:31.866Z,18.70
2022-09-14T01:17:28.381Z,18.70
2022-09-14T01:19:10.101Z,18.70
2022-09-14T01:21:01.721Z,18.70
2022-09-14T01:22:43.198Z,18.70
2022-09-14T01:24:44.577Z,18.70
2022-09-14T01:26:36.476Z,18.70
2022-09-14T01:28:35.706Z,18.70
2022-09-14T01:30:17.954Z,18.70
2022-09-14T01:32:19.234Z,18.70
2022-09-14T01:34:10.588Z,18.70
2022-09-14T01:35:52.621Z,18.70
2022-09-14T01:37:45.158Z,18.70
2022-09-14T01:39:19.982Z,18.70
2022-09-14T01:40:52.428Z,18.60
2022-09-14T01:42:27.222Z,18.60
2022-09-14T01:44:13.455Z,18.70
2022-09-14T01:45:52.407Z,18.60
2022-09-14T01:47:40.314Z,18.60
2022-09-14T01:49:24.555Z,18.70
2022-09-14T01:50:59.422Z,18.60
2022-09-14T01:52:39.257Z,18.60
2022-09-14T01:54:28.114Z,18.60
2022-09-14T01:56:20.037Z,18.60
2022-09-14T01:58:01.271Z,18.60
2022-09-14T01:59:43.034Z,18.60
2022-09-14T02:01:20.228Z,18.60
2022-09-14T02:03:01.414Z,18.60
2022-09-14T02:05:12.059Z,18.60
2022-09-14T02:06:47.290Z,18.60
2022-09-14T02:08:19.051Z,18.50
2022-09-14T02:09:52.500Z,18.50
2022-09-14T02:11:24.114Z,18.50
2022-09-14T02:12:56.157Z,18.50
2022-09-14T02:14:28.253Z,18.50
2022-09-14T02:16:00.002Z,18.50
2022-09-14T02:17:31.724Z,18.50
2022-09-14T02:19:03.990Z,18.50
2022-09-14T02:20:50.739Z,18.50
2022-09-14T02:22:23.196Z,18.50
2022-09-14T02:23:55.670Z,18.50
2022-09-14T02:25:27.524Z,18.50
2022-09-14T02:27:00.883Z,18.50
2022-09-14T02:28:32.795Z,18.50
2022-09-14T02:30:04.937Z,18.40
2022-09-14T02:32:00.912Z,18.50
2022-09-14T02:33:49.349Z,18.50
2022-09-14T02:35:32.436Z,18.50
2022-09-14T02:37:18.307Z,18.40
2022-09-14T02:39:20.303Z,18.40
2022-09-14T02:40:57.675Z,18.40
2022-09-14T02:42:43.931Z,18.40
2022-09-14T02:44:29.514Z,18.40
2022-09-14T02:46:43.530Z,18.40
2022-09-14T02:48:15.300Z,18.40
2022-09-14T02:50:07.791Z,18.40
2022-09-14T02:51:54.719Z,18.40
2022-09-14T02:53:44.908Z,18.40
2022-09-14T02:55:20.231Z,18.40
2022-09-14T02:56:51.936Z,18.30
2022-09-14T02:58:23.620Z,18.30
2022-09-14T02:59:55.304Z,18.30
2022-09-14T03:01:27.888Z,18.30
2022-09-14T03:02:59.576Z,18.30
2022-09-14T03:04:31.256Z,18.40
2022-09-14T03:06:03.209Z,18.30
2022-09-14T03:07:34.923Z,18.30
2022-09-14T03:09:06.531Z,18.30
2022-09-14T03:10:41.280Z,18.30
2022-09-14T03:12:12.960Z,18.30
2022-09-14T03:13:44.821Z,18.30
2022-09-14T03:15:16.520Z,18.30
2022-09-14T03:16:48.137Z,18.30
2022-09-14T03:18:19.972Z,18.30
2022-09-14T03:19:51.577Z,18.30
2022-09-14T03:21:23.705Z,18.20
2022-09-14T03:22:55.479Z,18.30
2022-09-14T03:24:27.108Z,18.20
2022-09-14T03:25:58.708Z,18.20
2022-09-14T03:27:30.373Z,18.20
2022-09-14T03:29:02.612Z,18.20
2022-09-14T03:30:34.550Z,18.20
2022-09-14T03:32:06.385Z,18.20
2022-09-14T03:33:38.420Z,18.20
2022-09-14T03:35:10.425Z,18.20
2022-09-14T03:36:42.049Z,18.20
2022-09-14T03:38:13.832Z,18.20
2022-09-14T03:39:45.532Z,18.20
2022-09-14T03:41:18.457Z,18.20
2022-09-14T03:42:51.640Z,18.20
2022-09-14T03:44:23.305Z,18.20
2022-09-14T03:45:54.909Z,18.20
2022-09-14T03:47:26.881Z,18.20
2022-09-14T03:48:58.505Z,18.10
2022-09-14T03:50:30.101Z,18.20
2022-09-14T03:52:02.108Z,18.10
2022-09-14T03:53:34.133Z,18.10
2022-09-14T03:55:07.874Z,18.10
2022-09-14T03:56:39.537Z,18.10
2022-09-14T03:58:11.209Z,18.10
2022-09-14T03:59:43.794Z,18.10
2022-09-14T04:01:18.802Z,18.10
2022-09-14T04:02:50.683Z,18.10
2022-09-14T04:04:22.506Z,18.10
2022-09-14T04:05:56.045Z,18.10
2022-09-14T04:07:28.221Z,18.10
2022-09-14T04:08:59.942Z,18.10
2022-09-14T04:10:31.586Z,18.10
2022-09-14T04:12:03.246Z,18.10
2022-09-14T04:13:35.310Z,18.00
2022-09-14T04:15:07.910Z,18.00
2022-09-14T04:16:40.747Z,18.00
2022-09-14T04:18:12.406Z,18.00
2022-09-14T04:19:44.014Z,18.00
2022-09-14T04:21:21.022Z,18.00
2022-09-14T04:22:52.746Z,18.00
2022-09-14T04:24:29.341Z,18.00
2022-09-14T04:26:01.887Z,18.00
2022-09-14T04:27:33.580Z,18.00
2022-09-14T04:29:05.715Z,17.90
2022-09-14T04:30:37.363Z,17.90
2022-09-14T04:32:09.032Z,17.90
2022-09-14T04:33:42.970Z,17.90
2022-09-14T04:35:14.719Z,17.90
2022-09-14T04:36:46.403Z,17.90
2022-09-14T04:38:18.060Z,17.90
2022-09-14T04:39:49.809Z,17.90
2022-09-14T04:41:22.692Z,17.80
2022-09-14T04:42:54.368Z,17.80
2022-09-14T04:44:26.039Z,17.90
2022-09-14T04:46:06.867Z,17.80
2022-09-14T04:47:38.908Z,17.80
2022-09-14T04:49:10.811Z,17.80
2022-09-14T04:50:43.483Z,17.80
2022-09-14T04:52:15.165Z,17.80
2022-09-14T04:53:50.154Z,17.80
2022-09-14T04:55:21.904Z,17.80
2022-09-14T04:56:53.508Z,17.80
2022-09-14T04:58:25.116Z,17.80
2022-09-14T04:59:56.731Z,17.70
2022-09-14T05:01:31.030Z,17.70
2022-09-14T05:03:04.740Z,17.70
2022-09-14T05:04:36.416Z,17.70
2022-09-14T05:06:10.906Z,17.70
2022-09-14T05:07:42.524Z,17.70
2022-09-14T05:09:16.584Z,17.70
2022-09-14T05:10:48.249Z,17.70
2022-09-14T05:12:19.838Z,17.70
2022-09-14T05:13:51.996Z,17.70
2022-09-14T05:15:23.729Z,17.70
2022-09-14T05:16:56.400Z,17.70
2022-09-14T05:18:28.212Z,17.70
2022-09-14T05:20:00.094Z,17.70
2022-09-14T05:21:33.373Z,17.60
2022-09-14T05:23:04.975Z,17.60
2022-09-14T05:24:36.684Z,17.60
2022-09-14T05:26:08.779Z,17.60
2022-09-14T05:27:40.427Z,17.60
2022-09-14T05:29:14.655Z,17.60
2022-09-14T05:30:46.339Z,17.60
2022-09-14T05:32:18.026Z,17.60
2022-09-14T05:33:50.145Z,17.60
2022-09-14T05:35:21.864Z,17.60
2022-09-14T05:36:53.487Z,17.60
2022-09-14T05:38:25.099Z,17.60
2022-09-14T05:39:56.740Z,17.60
2022-09-14T05:41:28.415Z,17.60
2022-09-14T05:43:00.087Z,17.60
2022-09-14T05:44:31.753Z,17.60
2022-09-14T05:46:06.092Z,17.50
2022-09-14T05:47:39.255Z,17.50
2022-09-14T05:49:11.056Z,17.60
2022-09-14T05:50:42.695Z,17.50
2022-09-14T05:52:14.365Z,17.50
2022-09-14T05:53:54.220Z,17.50
2022-09-14T05:55:26.329Z,17.50
2022-09-14T05:56:57.944Z,17.50
2022-09-14T05:58:30.100Z,17.50
2022-09-14T06:00:02.212Z,17.50
2022-09-14T06:01:43.880Z,17.50
2022-09-14T06:03:15.557Z,17.50
2022-09-14T06:04:47.182Z,17.50
2022-09-14T06:06:20.481Z,17.40
2022-09-14T06:07:52.999Z,17.50
2022-09-14T06:09:24.679Z,17.40
2022-09-14T06:10:56.431Z,17.40
2022-09-14T06:12:28.266Z,17.40
2022-09-14T06:14:00.394Z,17.40
2022-09-14T06:15:34.401Z,17.40
2022-09-14T06:17:06.201Z,17.40
2022-09-14T06:18:39.136Z,17.40
2022-09-14T06:20:11.046Z,17.40
2022-09-14T06:21:43.094Z,17.40
2022-09-14T06:23:14.730Z,17.40
2022-09-14T06:24:46.370Z,17.40
2022-09-14T06:26:18.120Z,17.40
2022-09-14T06:27:52.898Z,17.40
2022-09-14T06:29:24.503Z,17.40
2022-09-14T06:30:56.757Z,17.40
2022-09-14T06:32:32.027Z,17.40
2022-09-14T06:34:03.856Z,17.40
2022-09-14T06:35:35.925Z,17.30
2022-09-14T06:37:07.826Z,17.30
2022-09-14T06:38:40.831Z,17.40
2022-09-14T06:40:12.599Z,17.30
2022-09-14T06:41:44.426Z,17.30
2022-09-14T06:43:30.134Z,17.30
2022-09-14T06:45:01.898Z,17.30
2022-09-14T06:46:34.598Z,17.30
2022-09-14T06:48:06.394Z,17.30
2022-09-14T06:49:38.021Z,17.30
2022-09-14T06:51:15.536Z,17.30
2022-09-14T06:52:47.141Z,17.30
2022-09-14T06:54:18.832Z,17.30
2022-09-14T06:55:50.563Z,17.30
2022-09-14T06:57:22.308Z,17.30
2022-09-14T06:58:54.382Z,17.30
2022-09-14T07:00:26.163Z,17.30
2022-09-14T07:01:57.787Z,17.30
2022-09-14T07:03:29.828Z,17.30
2022-09-14T07:05:03.715Z,17.20
2022-09-14T07:06:41.376Z,17.30
2022-09-14T07:08:13.002Z,17.20
2022-09-14T07:09:44.699Z,17.20
2022-09-14T07:11:19.961Z,17.20
2022-09-14T07:12:51.710Z,17.20
2022-09-14T07:14:23.429Z,17.20
2022-09-14T07:15:55.635Z,17.30
2022-09-14T07:17:27.304Z,17.30
2022-09-14T07:19:03.931Z,17.20
2022-09-14T07:20:35.563Z,17.20
2022-09-14T07:22:07.192Z,17.20
2022-09-14T07:23:41.478Z,17.20
2022-09-14T07:25:13.166Z,17.20
2022-09-14T07:26:45.181Z,17.20
2022-09-14T07:28:16.804Z,17.20
2022-09-14T07:29:48.451Z,17.20
2022-09-14T07:31:28.229Z,17.20
2022-09-14T07:32:59.931Z,17.20
2022-09-14T07:34:31.559Z,17.20
2022-09-14T07:36:10.989Z,17.20
2022-09-14T07:37:42.644Z,17.20
2022-09-14T07:39:16.387Z,17.20
2022-09-14T07:40:48.132Z,17.20
2022-09-14T07:42:19.772Z,17.20
2022-09-14T07:43:52.953Z,17.20
2022-09-14T07:45:24.924Z,17.20
2022-09-14T07:46:56.527Z,17.20
2022-09-14T07:48:28.168Z,17.10
2022-09-14T07:49:59.822Z,17.20
2022-09-14T07:51:34.553Z,17.10
2022-09-14T07:53:06.242Z,17.20
2022-09-14T07:54:38.267Z,17.10
2022-09-14T07:56:11.431Z,17.20
2022-09-14T07:57:55.520Z,17.10
2022-09-14T07:59:36.940Z,17.10
2022-09-14T08:01:14.916Z,17.10
2022-09-14T08:02:53.689Z,17.10
2022-09-14T08:04:25.878Z,17.10
2022-09-14T08:06:02.181Z,17.10
2022-09-14T08:07:34.564Z,17.20
2022-09-14T08:09:10.850Z,17.10
2022-09-14T08:10:42.439Z,17.10
2022-09-14T08:12:16.044Z,17.10
2022-09-14T08:13:55.358Z,17.10
2022-09-14T08:15:28.769Z,17.10
2022-09-14T08:17:00.801Z,17.20
2022-09-14T08:18:35.139Z,17.10
2022-09-14T08:20:07.158Z,17.10
2022-09-14T08:21:42.818Z,17.10
2022-09-14T08:23:17.379Z,17.10
2022-09-14T08:24:48.991Z,17.10
2022-09-14T08:26:23.524Z,17.10
2022-09-14T08:27:55.154Z,17.10
2022-09-14T08:29:26.764Z,17.10
2022-09-14T08:31:12.490Z,17.10
2022-09-14T08:32:45.256Z,17.10
2022-09-14T08:34:17.345Z,17.10
2022-09-14T08:36:04.184Z,17.10
2022-09-14T08:37:35.820Z,17.10
2022-09-14T08:39:10.008Z,17.10
2022-09-14T08:40:46.519Z,17.10
2022-09-14T08:42:20.740Z,17.10
2022-09-14T08:43:53.286Z,17.10
2022-09-14T08:45:24.942Z,17.10
2022-09-14T08:47:04.053Z,17.10
2022-09-14T08:48:41.462Z,17.10
2022-09-14T08:50:19.596Z,17.10
2022-09-14T08:51:51.941Z,17.10
2022-09-14T08:53:25.103Z,17.10
2022-09-14T08:54:59.725Z,17.10
2022-09-14T08:56:37.896Z,17.10
2022-09-14T08:58:21.390Z,17.10
2022-09-14T09:00:13.390Z,17.10
2022-09-14T09:02:06.820Z,17.10
2022-09-14T09:04:15.596Z,17.10
2022-09-14T09:06:05.772Z,17.10
2022-09-14T09:07:57.280Z,17.00
2022-09-14T09:09:45.309Z,17.10
2022-09-14T09:11:22.546Z,17.00
2022-09-14T09:13:00.317Z,17.00
2022-09-14T09:14:40.072Z,17.00
2022-09-14T09:16:13.134Z,17.10
2022-09-14T09:17:48.345Z,17.00
2022-09-14T09:19:46.192Z,17.00
2022-09-14T09:21:28.178Z,17.00
2022-09-14T09:23:22.973Z,17.00
2022-09-14T09:24:55.658Z,17.00
2022-09-14T09:26:32.664Z,17.00
2022-09-14T09:28:11.857Z,17.00
2022-09-14T09:29:44.189Z,17.00
2022-09-14T09:31:18.406Z,17.00
2022-09-14T09:33:23.296Z,17.00
2022-09-14T09:35:16.448Z,17.00
2022-09-14T09:37:23.510Z,17.00
2022-09-14T09:38:55.198Z,17.00
2022-09-14T09:40:35.286Z,16.90
2022-09-14T09:42:19.166Z,16.90
2022-09-14T09:44:02.843Z,16.90
2022-09-14T09:45:54.979Z,16.90
2022-09-14T09:47:39.248Z,16.90
2022-09-14T09:49:18.755Z,17.00
2022-09-14T09:51:30.700Z,16.90
2022-09-14T09:53:06.665Z,16.90
2022-09-14T09:54:40.962Z,16.90
2022-09-14T09:56:31.779Z,17.00
2022-09-14T09:58:30.599Z,16.90
2022-09-14T10:00:20.049Z,17.00
2022-09-14T10:01:54.299Z,16.90
2022-09-14T10:03:37.878Z,17.00
2022-09-14T10:05:09.598Z,17.00
2022-09-14T10:06:43.739Z,17.00
2022-09-14T10:08:16.583Z,17.00
2022-09-14T10:09:58.283Z,17.00
2022-09-14T10:11:37.843Z,17.00
2022-09-14T10:13:40.847Z,17.00
2022-09-14T10:15:30.084Z,17.00
2022-09-14T10:17:20.010Z,17.00
2022-09-14T10:18:53.651Z,17.00
2022-09-14T10:20:26.471Z,17.00
2022-09-14T10:22:04.653Z,17.00
2022-09-14T10:23:38.824Z,17.00
2022-09-14T10:25:13.649Z,17.00
2022-09-14T10:26:45.429Z,17.00
2022-09-14T10:28:37.803Z,17.00
2022-09-14T10:30:14.973Z,17.00
2022-09-14T10:31:48.102Z,17.00
2022-09-14T10:33:20.179Z,17.00
2022-09-14T10:34:52.070Z,16.90
2022-09-14T10:36:32.161Z,16.90
2022-09-14T10:38:15.910Z,16.90
2022-09-14T10:40:19.933Z,16.90
2022-09-14T10:42:05.175Z,17.00
2022-09-14T10:43:48.784Z,17.00
2022-09-14T10:45:33.336Z,16.90
2022-09-14T10:47:42.452Z,16.90
2022-09-14T10:49:37.957Z,16.90
2022-09-14T10:51:31.136Z,16.90
2022-09-14T10:53:45.088Z,16.90
2022-09-14T10:55:33.600Z,17.00
2022-09-14T10:57:39.824Z,16.90
2022-09-14T10:59:48.696Z,16.90
2022-09-14T11:01:32.732Z,16.90
2022-09-14T11:03:11.967Z,16.90
2022-09-14T11:05:07.084Z,16.90
2022-09-14T11:06:57.776Z,16.90
2022-09-14T11:08:46.347Z,16.90
2022-09-14T11:10:28.497Z,16.90
2022-09-14T11:12:22.852Z,16.90
2022-09-14T11:14:15.613Z,16.90
2022-09-14T11:16:10.660Z,16.90
2022-09-14T11:18:06.754Z,16.90
2022-09-14T11:20:09.320Z,16.90
2022-09-14T11:21:57.300Z,16.80
2022-09-14T11:23:44.024Z,16.80
2022-09-14T11:25:23.788Z,16.80
2022-09-14T11:27:05.677Z,16.80
2022-09-14T11:28:43.977Z,16.80
2022-09-14T11:30:19.729Z,16.80
2022-09-14T11:32:19.936Z,16.80
2022-09-14T11:34:11.186Z,16.80
2022-09-14T11:35:48.530Z,16.80
2022-09-14T11:37:43.576Z,16.80
2022-09-14T11:39:36.801Z,16.70
2022-09-14T11:41:33.445Z,16.70
2022-09-14T11:43:31.233Z,16.70
2022-09-14T11:45:07.817Z,16.70
2022-09-14T11:46:41.513Z,16.70
2022-09-14T11:48:51.726Z,16.70
2022-09-14T11:50:25.366Z,16.70
2022-09-14T11:52:19.370Z,16.70
2022-09-14T11:53:51.121Z,16.80
2022-09-14T11:55:23.165Z,16.70
2022-09-14T11:57:04.059Z,16.70
2022-09-14T11:58:36.111Z,16.70
2022-09-14T12:00:26.053Z,16.70
2022-09-14T12:02:23.930Z,16.70
2022-09-14T12:04:01.293Z,16.70
2022-09-14T12:05:34.551Z,16.70
2022-09-14T12:07:06.207Z,16.70
2022-09-14T12:08:40.230Z,16.70
2022-09-14T12:10:17.617Z,16.70
2022-09-14T12:11:56.538Z,16.70
2022-09-14T12:13:28.287Z,16.70
2022-09-14T12:15:00.995Z,16.70
2022-09-14T12:16:34.665Z,16.70
2022-09-14T12:18:06.451Z,16.70
2022-09-14T12:19:38.978Z,16.70
2022-09-14T12:21:20.401Z,16.70
2022-09-14T12:22:52.221Z,16.70
2022-09-14T12:24:24.553Z,16.70
2022-09-14T12:25:59.155Z,16.70
2022-09-14T12:27:35.251Z,16.70
2022-09-14T12:29:27.346Z,16.80
2022-09-14T12:30:58.936Z,16.70
2022-09-14T12:32:43.012Z,16.70
2022-09-14T12:34:16.535Z,16.70
2022-09-14T12:35:48.341Z,16.70
2022-09-14T12:37:31.681Z,16.70
2022-09-14T12:39:23.708Z,16.70
2022-09-14T12:41:02.057Z,16.70
2022-09-14T12:42:33.720Z,16.70
2022-09-14T12:44:32.517Z,16.70
2022-09-14T12:46:11.763Z,16.70
2022-09-14T12:47:52.538Z,16.70
2022-09-14T12:49:31.711Z,16.70
2022-09-14T12:51:05.288Z,16.70
2022-09-14T12:53:01.863Z,16.70
2022-09-14T12:54:51.464Z,16.60
2022-09-14T12:56:28.762Z,16.60
2022-09-14T12:58:21.340Z,16.60
2022-09-14T13:00:05.820Z,16.60
2022-09-14T13:02:13.822Z,16.60
2022-09-14T13:03:54.261Z,16.60
2022-09-14T13:05:29.301Z,16.60
2022-09-14T13:07:05.792Z,16.60
2022-09-14T13:08:37.493Z,16.60
2022-09-14T13:10:36.819Z,16.60
2022-09-14T13:12:11.400Z,16.60
2022-09-14T13:13:43.278Z,16.60
2022-09-14T13:15:14.929Z,16.60
2022-09-14T13:16:50.147Z,16.60
2022-09-14T13:18:21.737Z,16.60
2022-09-14T13:19:56.175Z,16.60
2022-09-14T13:21:27.887Z,16.60
2022-09-14T13:23:00.196Z,16.60
2022-09-14T13:24:43.865Z,16.70
2022-09-14T13:26:22.989Z,16.70
2022-09-14T13:27:55.480Z,16.70
2022-09-14T13:29:28.071Z,16.70
2022-09-14T13:31:02.073Z,16.70
2022-09-14T13:32:45.888Z,16.70
2022-09-14T13:34:26.476Z,16.70
2022-09-14T13:36:01.012Z,16.70
2022-09-14T13:37:32.764Z,16.70
2022-09-14T13:39:04.666Z,16.70
2022-09-14T13:40:37.046Z,16.70
2022-09-14T13:42:09.957Z,16.80
2022-09-14T13:43:42.919Z,16.80
2022-09-14T13:45:14.698Z,16.70
2022-09-14T13:46:46.422Z,16.70
2022-09-14T13:48:20.177Z,16.70
2022-09-14T13:49:53.878Z,16.70
2022-09-14T13:51:28.006Z,16.70
2022-09-14T13:53:03.161Z,16.70
2022-09-14T13:54:36.381Z,16.70
2022-09-14T13:56:31.089Z,16.70
2022-09-14T13:58:13.420Z,16.80
2022-09-14T14:00:14.106Z,16.70
2022-09-14T14:02:03.086Z,16.70
2022-09-14T14:03:41.826Z,16.70
2022-09-14T14:05:41.261Z,16.70
2022-09-14T14:07:13.188Z,16.70
2022-09-14T14:08:44.929Z,16.70
2022-09-14T14:10:46.233Z,16.70
2022-09-14T14:12:25.548Z,16.70
2022-09-14T14:14:31.372Z,16.70
2022-09-14T14:16:17.540Z,16.70
2022-09-14T14:17:49.253Z,16.70
2022-09-14T14:19:29.421Z,16.70
2022-09-14T14:21:14.341Z,16.70
2022-09-14T14:22:59.817Z,16.70
2022-09-14T14:24:31.945Z,16.70
2022-09-14T14:26:10.299Z,16.70
2022-09-14T14:27:46.188Z,16.70
2022-09-14T14:29:18.993Z,16.70
2022-09-14T14:30:51.555Z,16.70
2022-09-14T14:32:23.434Z,16.70
2022-09-14T14:33:56.336Z,16.70
2022-09-14T14:35:30.484Z,16.70
2022-09-14T14:37:02.630Z,16.80
2022-09-14T14:38:34.301Z,16.70
2022-09-14T14:40:06.724Z,16.70
2022-09-14T14:41:38.407Z,16.70
2022-09-14T14:43:18.976Z,16.70
2022-09-14T14:44:50.627Z,16.70
2022-09-14T14:46:22.474Z,16.70
2022-09-14T14:47:55.370Z,16.80
2022-09-14T14:49:27.101Z,16.80
2022-09-14T14:50:58.919Z,16.80
2022-09-14T14:52:30.552Z,16.80
2022-09-14T14:54:02.146Z,16.80
2022-09-14T14:55:35.717Z,16.80
2022-09-14T14:57:08.602Z,16.80
2022-09-14T14:58:47.312Z,16.80
2022-09-14T15:00:24.233Z,16.80
2022-09-14T15:01:56.781Z,16.80
2022-09-14T15:03:28.523Z,16.80
2022-09-14T15:05:00.174Z,16.80
2022-09-14T15:06:31.789Z,16.80
2022-09-14T15:08:03.532Z,16.80
2022-09-14T15:09:35.439Z,16.80
2022-09-14T15:11:17.902Z,16.80
2022-09-14T15:12:49.726Z,16.80
2022-09-14T15:14:26.717Z,16.80
2022-09-14T15:15:59.025Z,16.80
2022-09-14T15:17:30.729Z,16.80
2022-09-14T15:19:02.352Z,16.80
2022-09-14T15:20:34.025Z,16.80
2022-09-14T15:22:05.657Z,16.80
2022-09-14T15:23:37.719Z,16.80
2022-09-14T15:25:10.999Z,16.80
2022-09-14T15:26:42.733Z,16.70
2022-09-14T15:28:14.394Z,16.80
2022-09-14T15:29:46.108Z,16.80
2022-09-14T15:31:18.000Z,16.80
2022-09-14T15:32:49.795Z,16.80
2022-09-14T15:34:21.592Z,16.70
2022-09-14T15:35:57.165Z,16.80
2022-09-14T15:37:28.889Z,16.70
2022-09-14T15:39:00.616Z,16.70
2022-09-14T15:40:32.520Z,16.70
2022-09-14T15:42:05.109Z,16.80
2022-09-14T15:43:36.775Z,16.70
2022-09-14T15:45:09.168Z,16.70
2022-09-14T15:46:41.153Z,16.70
2022-09-14T15:48:17.653Z,16.70
2022-09-14T15:49:54.255Z,16.70
2022-09-14T15:51:30.459Z,16.70
2022-09-14T15:53:04.033Z,16.70
2022-09-14T15:54:38.828Z,16.70
2022-09-14T15:56:12.406Z,16.70
2022-09-14T15:57:45.238Z,16.70
2022-09-14T15:59:18.784Z,16.80
2022-09-14T16:00:51.716Z,16.70
2022-09-14T16:02:24.358Z,16.70
2022-09-14T16:04:01.188Z,16.70
2022-09-14T16:05:36.626Z,16.70
2022-09-14T16:07:09.769Z,16.70
2022-09-14T16:08:41.967Z,16.70
2022-09-14T16:10:13.638Z,16.70
2022-09-14T16:11:45.282Z,16.70
2022-09-14T16:13:16.891Z,16.70
2022-09-14T16:14:49.129Z,16.70
2022-09-14T16:16:21.168Z,16.70
2022-09-14T16:17:53.718Z,16.70
2022-09-14T16:19:27.216Z,16.70
2022-09-14T16:21:28.297Z,16.70
2022-09-14T16:23:00.185Z,16.70
2022-09-14T16:24:32.375Z,16.60
2022-09-14T16:26:15.429Z,16.70
2022-09-14T16:27:48.761Z,16.70
2022-09-14T16:29:22.039Z,16.70
2022-09-14T16:30:54.328Z,16.60
2022-09-14T16:32:27.090Z,16.60
2022-09-14T16:34:01.690Z,16.60
2022-09-14T16:35:34.453Z,16.60
2022-09-14T16:37:06.391Z,16.60
2022-09-14T16:38:39.883Z,16.60
2022-09-14T16:40:12.797Z,16.60
2022-09-14T16:41:45.078Z,16.60
2022-09-14T16:43:17.464Z,16.60
2022-09-14T16:44:49.631Z,16.60
2022-09-14T16:46:21.731Z,16.60
2022-09-14T16:47:53.449Z,16.60
2022-09-14T16:49:27.805Z,16.60
2022-09-14T16:51:01.954Z,16.60
2022-09-14T16:52:33.708Z,16.60
2022-09-14T16:54:05.473Z,16.60
2022-09-14T16:55:37.108Z,16.60
2022-09-14T16:57:08.895Z,16.60
2022-09-14T16:58:40.899Z,16.60
2022-09-14T17:00:12.997Z,16.60
2022-09-14T17:01:46.557Z,16.60
2022-09-14T17:03:19.631Z,16.60
2022-09-14T17:04:51.257Z,16.60
2022-09-14T17:06:25.363Z,16.60
2022-09-14T17:07:57.014Z,16.60
2022-09-14T17:09:30.523Z,16.60
2022-09-14T17:11:04.122Z,16.60
2022-09-14T17:12:35.800Z,16.60
2022-09-14T17:14:09.561Z,16.60
2022-09-14T17:15:41.228Z,16.60
2022-09-14T17:17:12.846Z,16.70
2022-09-14T17:18:48.622Z,16.60
2022-09-14T17:20:20.268Z,16.60
2022-09-14T17:21:52.131Z,16.60
2022-09-14T17:23:24.196Z,16.60
2022-09-14T17:24:55.915Z,16.60
2022-09-14T17:26:27.604Z,16.60
2022-09-14T17:27:59.249Z,16.60
2022-09-14T17:29:32.356Z,16.60
2022-09-14T17:31:06.630Z,16.60
2022-09-14T17:32:38.355Z,16.60
2022-09-14T17:34:12.659Z,16.60
2022-09-14T17:35:48.744Z,16.50
2022-09-14T17:37:20.347Z,16.50
2022-09-14T17:38:54.146Z,16.50
2022-09-14T17:40:25.882Z,16.60
2022-09-14T17:41:57.580Z,16.50
2022-09-14T17:43:29.224Z,16.50
2022-09-14T17:45:00.867Z,16.50
2022-09-14T17:46:33.129Z,16.50
2022-09-14T17:48:07.112Z,16.50
2022-09-14T17:49:38.764Z,16.50
2022-09-14T17:51:18.031Z,16.50
2022-09-14T17:52:50.723Z,16.50
2022-09-14T17:54:22.376Z,16.60
2022-09-14T17:56:02.057Z,16.50
2022-09-14T17:57:33.669Z,16.50
2022-09-14T17:59:15.237Z,16.50
2022-09-14T18:00:47.157Z,16.50
2022-09-14T18:02:19.246Z,16.50
2022-09-14T18:03:53.943Z,16.50
2022-09-14T18:05:25.824Z,16.50
2022-09-14T18:06:57.464Z,16.50
2022-09-14T18:08:29.189Z,16.50
2022-09-14T18:10:01.186Z,16.50
2022-09-14T18:11:33.442Z,16.50
2022-09-14T18:13:05.152Z,16.50
2022-09-14T18:14:36.870Z,16.50
2022-09-14T18:16:09.462Z,16.50
2022-09-14T18:17:42.228Z,16.50
2022-09-14T18:19:14.966Z,16.50
2022-09-14T18:20:46.570Z,16.50
2022-09-14T18:22:18.765Z,16.40
2022-09-14T18:23:55.263Z,16.40
2022-09-14T18:25:27.609Z,16.40
2022-09-14T18:26:59.882Z,16.40
2022-09-14T18:28:32.780Z,16.40
2022-09-14T18:30:05.001Z,16.40
2022-09-14T18:31:36.817Z,16.40
2022-09-14T18:33:08.628Z,16.40
2022-09-14T18:34:40.605Z,16.40
2022-09-14T18:36:15.000Z,16.40
2022-09-14T18:37:46.799Z,16.40
2022-09-14T18:39:19.150Z,16.40
2022-09-14T18:40:51.383Z,16.40
2022-09-14T18:42:23.039Z,16.40
2022-09-14T18:43:54.850Z,16.40
2022-09-14T18:45:27.006Z,16.40
2022-09-14T18:46:59.178Z,16.40
2022-09-14T18:48:30.919Z,16.40
2022-09-14T18:50:05.118Z,16.40
2022-09-14T18:51:37.203Z,16.40
2022-09-14T18:53:08.926Z,16.30
2022-09-14T18:54:40.741Z,16.30
2022-09-14T18:56:15.967Z,16.30
2022-09-14T18:57:48.748Z,16.30
2022-09-14T18:59:20.458Z,16.30
2022-09-14T19:00:52.746Z,16.30
2022-09-14T19:02:24.733Z,16.30
2022-09-14T19:03:56.951Z,16.30
2022-09-14T19:05:31.315Z,16.30
2022-09-14T19:07:03.500Z,16.30
2022-09-14T19:08:35.643Z,16.30
2022-09-14T19:10:11.467Z,16.30
2022-09-14T19:11:43.527Z,16.30
2022-09-14T19:13:15.223Z,16.30
2022-09-14T19:14:46.888Z,16.20
2022-09-14T19:16:19.288Z,16.20
2022-09-14T19:17:51.066Z,16.20
2022-09-14T19:19:23.170Z,16.20
2022-09-14T19:21:06.525Z,16.20
2022-09-14T19:22:38.757Z,16.20
2022-09-14T19:24:13.378Z,16.30
2022-09-14T19:25:45.110Z,16.20
2022-09-14T19:27:17.519Z,16.20
2022-09-14T19:28:49.357Z,16.20
2022-09-14T19:30:20.998Z,16.20
2022-09-14T19:31:53.318Z,16.20
2022-09-14T19:33:25.370Z,16.20
2022-09-14T19:34:57.691Z,16.20
2022-09-14T19:36:30.521Z,16.20
2022-09-14T19:38:02.203Z,16.20
2022-09-14T19:39:33.959Z,16.20
2022-09-14T19:41:06.370Z,16.20
2022-09-14T19:42:37.989Z,16.20
2022-09-14T19:44:11.841Z,16.20
2022-09-14T19:45:43.466Z,16.20
2022-09-14T19:47:15.222Z,16.10
2022-09-14T19:48:47.177Z,16.10
2022-09-14T19:50:18.805Z,16.10
2022-09-14T19:51:50.667Z,16.10
2022-09-14T19:53:22.283Z,16.10
2022-09-14T19:54:53.946Z,16.10
2022-09-14T19:56:28.303Z,16.20
2022-09-14T19:57:59.995Z,16.10
2022-09-14T19:59:31.615Z,16.10
2022-09-14T20:01:04.472Z,16.10
2022-09-14T20:02:36.197Z,16.00
2022-09-14T20:04:10.137Z,16.00
2022-09-14T20:05:41.759Z,16.00
2022-09-14T20:07:13.392Z,16.00
2022-09-14T20:08:52.792Z,16.00
2022-09-14T20:10:26.482Z,16.00
2022-09-14T20:11:58.100Z,16.00
2022-09-14T20:13:29.819Z,16.00
2022-09-14T20:15:01.576Z,16.00
2022-09-14T20:16:45.184Z,16.00
2022-09-14T20:18:16.873Z,16.00
2022-09-14T20:19:48.525Z,16.00
2022-09-14T20:21:26.895Z,16.00
2022-09-14T20:22:58.541Z,16.00
2022-09-14T20:24:32.187Z,16.00
2022-09-14T20:26:08.277Z,15.90
2022-09-14T20:27:39.923Z,15.90
2022-09-14T20:29:11.591Z,15.90
2022-09-14T20:30:43.240Z,15.90
2022-09-14T20:32:19.553Z,15.90
2022-09-14T20:33:52.175Z,15.90
2022-09-14T20:35:24.004Z,15.90
2022-09-14T20:36:56.652Z,15.90
2022-09-14T20:38:28.547Z,15.80
2022-09-14T20:40:00.271Z,15.80
2022-09-14T20:41:34.197Z,15.80